Ana Sayfa
METAR-TAF:

METAR-TAF

Havaalanları :

Kilimanjaro, Tanzanya

Enlem: 03-25S, Boylam: 037-04E, yükseklik: 891 m

Güncel hava durumu gözlemi

Rapor saat 19:00 UTC de 4 saat ve 1 dakika önce yapıldı.
Rüzgar doğu/kuzeydoğudan 5 kt
Sıcaklık 23°C
Nem 73%
Basınç 1022 hPa
Görüş mesafesi 10 km veya daha fazla
2600 ft yükseklikte parçalı çok bulutlu

METAR: HTKJ 211900Z 06005KT 9999 BKN026 23/18 Q1022 NOSIG

Saat: 02:01 (23:01 UTC)

Tahmin

Rapor saat 17:00 UTC de 6 saat ve 1 dakika önce yapıldı.
Ayın 21'si saat 18 UTC'den ayın 22'si saat 18 UTC'ye kadar geçerli Tahmin
Rüzgar doğudan 5 kt
Görüş mesafesi 10 km veya daha fazla
2400 ft yükseklikte parçalı çok bulutlu

TAF: HTKJ 211700Z 2118/2218 08005KT 9999 BKN024

4.000'den fazla havaalanı için hava durumu gözlemleri ve tahminleri (METAR ve TAF raporları).

Kullanılabilir istasyonlar harita üzerinde sarı ve kırmızı noktalarla gösterilir.

İstasyonun adını görmek için fareyi noktanın üzerinde gezdirin.

Sonrasında hava gözlem ve tahminlerini görmek için tıklayın.

Haritayı değiştirmek için: yaklaştırmak için siyah artı işaretli yeşil düğmeye ve uzaklaştırmak için de eksi işaretli düğmeye hızla tıklayın; bitişik haritalar için yeşil okları kullanın.


METAR-TAF: